Flight Track Log - Related Links

Times and Time Zones

All times are in EDT time to prevent confusion due to time zone crossing. See the ASQ5069 flight status page for this flight to view local times or setup timezone preferences in your user account.

Time Position Orientation Groundspeed Altitude Reporting Facility
EDT Latitude Longitude Course Direction KTS MPH feet Rate Location/Type
Mon 02:07:13 PM 43.0914 -89.3669 283° West 167 192 3,300  Level Minneapolis Center
Mon 02:08:06 PM 43.0894 -89.4281 268° West 198 228 5,300 2,296 Climbing Chicago Center
Mon 02:09:08 PM 43.1097 -89.5136 288° West 230 265 7,700 2,758 Climbing Chicago Center
Mon 02:10:10 PM 43.1350 -89.6242 287° West 254 292 11,000 2,468 Climbing Chicago Center
Mon 02:11:12 PM 43.1586 -89.7261 288° West 280 322 12,800 1,790 Climbing Chicago Center
Mon 02:12:00 PM 43.1788 -89.5728 283° West  Level FlightAware Approximate
Mon 02:12:14 PM 43.1858 -89.8419 288° West 316 364 14,700  Level Chicago Center
Mon 02:13:16 PM 43.2131 -89.9633 287° West 331 381 16,900 1,984 Climbing Chicago Center
Mon 02:14:18 PM 43.2408 -90.0842 288° West 333 383 18,800 1,984 Climbing Chicago Center
Mon 02:15:20 PM 43.2739 -90.2289 287° West 341 392 21,000 1,548 Climbing Chicago Center
Mon 02:16:22 PM 43.3008 -90.3506 287° West 350 403 22,000 484 Climbing Chicago Center
Mon 02:17:24 PM 43.3328 -90.4897 288° West 385 443 22,000  Level Chicago Center
Mon 02:18:35 PM 43.3747 -90.6686 288° West 408 470 22,000  Level Minneapolis Center
Mon 02:19:37 PM 43.4081 -90.8156 287° West 409 471 22,000  Level Minneapolis Center
Mon 02:20:39 PM 43.4394 -90.9631 286° West 407 468 22,000  Level Minneapolis Center
Mon 02:21:41 PM 43.4792 -91.1378 287° West 405 466 22,000  Level Minneapolis Center
Mon 02:22:43 PM 43.5097 -91.2844 286° West 404 465 22,000  Level Minneapolis Center
Mon 02:23:45 PM 43.5406 -91.4292 286° West 402 463 22,000  Level Minneapolis Center
Mon 02:24:47 PM 43.5728 -91.5750 287° West 403 464 22,000  Level Minneapolis Center
Mon 02:25:49 PM 43.6094 -91.7522 286° West 406 467 22,000  Level Minneapolis Center
Mon 02:26:51 PM 43.6403 -91.8983 286° West 402 463 22,000  Level Minneapolis Center
Mon 02:27:53 PM 43.6706 -92.0436 286° West 399 459 22,000 -629 Level Minneapolis Center
Mon 02:28:55 PM 43.7014 -92.1931 286° West 407 468 20,700 -1,306 Descending Minneapolis Center
Mon 02:29:57 PM 43.7322 -92.3411 286° West 404 465 19,300 -1,452 Descending Minneapolis Center
Mon 02:30:59 PM 43.7672 -92.5144 286° West 395 455 17,700 -1,403 Descending Minneapolis Center
Mon 02:32:01 PM 43.8292 -92.6292 307° West 376 433 16,400 -774 Descending Minneapolis Center
Mon 02:33:03 PM 43.8964 -92.7281 313° West 356 410 16,100 -194 Descending Minneapolis Center
Mon 02:34:05 PM 43.9650 -92.8272 314° West 359 413 16,000 -871 Descending Minneapolis Center
Mon 02:35:07 PM 44.0350 -92.9297 314° West 368 423 14,300 -1,790 Descending Minneapolis Center
Mon 02:36:09 PM 44.1142 -93.0453 314° West 349 402 12,300 -1,887 Descending Minneapolis Center
Mon 02:37:11 PM 44.1761 -93.1364 313° West 330 380 10,400 -1,104 Descending Minneapolis Center
Mon 02:38:14 PM 44.2506 -93.2142 323° Northwest 317 365 10,000 -192 Descending Minneapolis Center
Mon 02:39:16 PM 44.3519 -93.2092 North 337 388 10,000  Level Minneapolis Center
Mon 02:40:18 PM 44.4461 -93.1997 North 338 389 10,000  Level Minneapolis Center
Mon 02:41:20 PM 44.5408 -93.1911 North 340 391 10,000 -339 Level Minneapolis Center
Mon 02:42:22 PM 44.6314 -93.1864 North 286 329 9,300 -968 Descending Minneapolis Center
Mon 02:43:24 PM 44.7089 -93.1872 360° North 282 325 8,000 -629 Descending Minneapolis Center
Mon 02:44:26 PM 44.7950 -93.1753 North 288 331 8,000  Level Minneapolis Center
Mon 02:45:28 PM 44.8736 -93.1611 North 288 331 8,000 -677 Level Minneapolis Center
Mon 02:46:30 PM 44.9492 -93.2044 338° Northwest 274 315 6,600 -1,056 Descending Minneapolis Center
Mon 02:47:33 PM 45.0125 -93.2522 332° Northwest 264 304 5,800 -1,248 Descending Minneapolis Center
Mon 02:48:35 PM 45.0431 -93.3311 299° West 225 259 4,000 -968 Descending Minneapolis Center
Mon 02:49:37 PM 44.9986 -93.3706 212° Southwest 202 232 3,800 -484 Descending Minneapolis Center
Mon 02:50:39 PM 44.9544 -93.3517 163° South 156 180 3,000 -677 Descending Minneapolis Center
Mon 02:51:41 PM 44.9308 -93.3103 129° Southeast 136 157 2,400 -677 Descending Minneapolis Center
Mon 02:52:43 PM 44.9131 -93.2664 120° Southeast 123 142 1,600 -774 Descending Minneapolis Center
Mon 02:54:00 PM 44.8820 -93.2218 138° Southeast  Level Estimated
Mon 03:01:00 PM 44.8820 -93.2218 138° Southeast  Level Estimated

Login

Don't have an account? Register now (free) for customized features, flight alerts, and more!